Time;durP1;ratioP1;P1;durP2;ratioP2;P2;SDS_P1;SDS_P2;PMS_P1;PMS_P2;Temp;Humidity;BMP_temperature;BMP_pressure;BME280_temperature;BME280_humidity;BME280_pressure;Samples;Min_cycle;Max_cycle;Signal;HPM_P1;HPM_P2
2021/04/11 00:00:42;;;;;;;;;67.50;48.75;;;;;3.90;74.98;100066.66;3618209;39;9338;-59
2021/04/11 00:03:17;;;;;;;;;84.25;60.50;;;;;3.67;75.96;100064.66;3618685;39;9216;-59
2021/04/11 00:05:45;;;;;;;;;81.75;62.25;;;;;3.69;76.31;100064.63;3622145;39;9215;-58
2021/04/11 00:08:15;;;;;;;;;71.50;54.75;;;;;3.72;76.65;100067.19;3608922;39;9254;-58
2021/04/11 00:10:47;;;;;;;;;66.25;50.00;;;;;3.79;75.29;100065.22;3619454;39;9230;-58
2021/04/11 00:13:29;;;;;;;;;66.25;51.00;;;;;3.98;76.11;100055.84;3619042;39;9224;-58
2021/04/11 00:15:56;;;;;;;;;49.00;38.25;;;;;4.76;74.58;100057.91;3609002;39;9218;-59
2021/04/11 00:18:23;;;;;;;;;56.50;43.25;;;;;5.01;72.35;100058.00;3617861;39;9781;-59
2021/04/11 00:20:51;;;;;;;;;27.50;20.50;;;;;6.50;69.64;100060.69;3618264;39;9353;-59
2021/04/11 00:23:21;;;;;;;;;26.50;22.00;;;;;6.76;68.71;100056.97;3607945;39;9909;-59
2021/04/11 00:25:49;;;;;;;;;21.50;17.50;;;;;6.98;67.14;100065.00;3617932;39;10221;-58
2021/04/11 00:28:17;;;;;;;;;30.50;22.25;;;;;7.06;66.88;100057.56;3600648;39;10054;-59
2021/04/11 00:30:44;;;;;;;;;28.67;19.00;;;;;7.18;66.63;100059.69;3627211;39;9999;-60
2021/04/11 00:33:37;;;;;;;;;18.00;13.00;;;;;7.25;66.20;100061.19;3617880;39;10105;-59
2021/04/11 00:36:19;;;;;;;;;18.00;16.33;;;;;7.33;65.51;100065.34;3609835;39;10686;-69
2021/04/11 00:38:47;;;;;;;;;18.00;16.00;;;;;7.52;64.91;100062.75;3616902;39;9970;-60
2021/04/11 00:41:21;;;;;;;;;21.00;14.00;;;;;7.42;64.67;100067.63;3608444;39;9896;-60
2021/04/11 00:43:49;;;;;;;;;15.33;11.67;;;;;7.53;64.19;100060.03;3617275;39;10085;-60
2021/04/11 00:46:52;;;;;;;;;15.33;13.00;;;;;7.50;64.74;100065.47;3617466;39;9973;-60
2021/04/11 00:49:28;;;;;;;;;22.33;13.67;;;;;7.51;64.33;100064.56;3614439;39;9828;-59
2021/04/11 00:51:56;;;;;;;;;13.67;13.00;;;;;7.60;63.83;100066.81;3617442;39;9907;-59
2021/04/11 00:54:23;;;;;;;;;13.33;13.33;;;;;7.51;64.46;100066.38;3612403;39;10075;-60
2021/04/11 00:56:51;;;;;;;;;17.33;15.67;;;;;7.67;63.01;100065.63;3617689;39;9855;-60
2021/04/11 00:59:21;;;;;;;;;14.00;13.00;;;;;7.65;63.03;100064.81;3613738;39;10163;-60
2021/04/11 01:01:48;;;;;;;;;21.67;12.33;;;;;7.75;63.44;100061.75;3617349;39;10676;-60
2021/04/11 01:04:17;;;;;;;;;11.33;8.67;;;;;7.66;63.29;100063.00;3617929;39;9783;-60
2021/04/11 01:06:54;;;;;;;;;15.00;11.00;;;;;7.56;63.36;100059.88;3608642;39;9951;-60
2021/04/11 01:09:35;;;;;;;;;16.00;12.67;;;;;7.62;63.33;100058.75;3616988;39;10035;-60
2021/04/11 01:12:06;;;;;;;;;14.33;10.33;;;;;7.64;63.63;100057.75;3617202;39;10399;-60
2021/04/11 01:14:35;;;;;;;;;9.67;9.67;;;;;7.64;63.22;100063.09;3620517;39;9810;-60
2021/04/11 01:17:10;;;;;;;;;15.00;11.67;;;;;7.77;63.54;100051.88;3611024;39;9980;-60
2021/04/11 01:19:39;;;;;;;;;12.33;11.33;;;;;7.59;63.95;100051.75;3621179;39;9759;-60
2021/04/11 01:23:00;;;;;;;;;16.33;10.67;;;;;7.68;62.76;100045.97;3607358;39;10134;-60
2021/04/11 01:25:32;;;;;;;;;13.33;12.33;;;;;7.56;63.38;100048.34;3585190;39;9998;-60
2021/04/11 01:28:15;;;;;;;;;10.67;9.33;;;;;7.53;63.70;100043.09;3611159;39;9890;-60
2021/04/11 01:30:44;;;;;;;;;18.33;13.00;;;;;7.52;63.56;100054.75;3611895;39;9786;-60
2021/04/11 01:33:16;;;;;;;;;11.33;9.33;;;;;7.46;63.63;100055.88;3606656;39;9837;-60
2021/04/11 01:35:45;;;;;;;;;17.00;11.33;;;;;7.45;64.08;100059.47;3617102;39;9809;-60
2021/04/11 01:38:15;;;;;;;;;10.33;8.33;;;;;7.48;64.04;100067.38;3617423;39;10478;-60
2021/04/11 01:40:45;;;;;;;;;15.00;10.67;;;;;7.34;63.73;100059.06;3612141;39;9762;-60
2021/04/11 01:43:13;;;;;;;;;13.00;10.67;;;;;7.28;64.40;100059.31;3610261;39;9792;-59
2021/04/11 01:45:43;;;;;;;;;9.67;7.67;;;;;7.14;65.29;100050.09;3615911;39;10008;-59
2021/04/11 01:48:11;;;;;;;;;14.00;11.00;;;;;7.00;65.93;100045.34;3616955;39;9840;-59
2021/04/11 01:50:40;;;;;;;;;11.33;9.33;;;;;6.63;66.44;100039.72;3608466;39;9898;-60
2021/04/11 01:53:10;;;;;;;;;25.33;22.67;;;;;5.54;69.54;100035.78;3611797;39;10009;-59
2021/04/11 01:55:37;;;;;;;;;56.00;44.25;;;;;4.86;71.19;100040.72;3616080;39;9722;-59
2021/04/11 01:58:05;;;;;;;;;63.75;46.75;;;;;4.54;73.70;100045.28;3607955;39;9285;-59
2021/04/11 02:00:37;;;;;;;;;63.00;46.00;;;;;4.40;74.31;100047.50;3617389;39;9407;-59
2021/04/11 02:03:15;;;;;;;;;47.25;37.00;;;;;4.51;73.89;100041.84;3610955;39;9722;-59
2021/04/11 02:05:48;;;;;;;;;71.50;55.25;;;;;4.66;73.35;100037.81;3617211;39;9259;-59
2021/04/11 02:08:24;;;;;;;;;56.50;46.25;;;;;4.88;72.70;100044.22;3614691;39;9256;-59
2021/04/11 02:10:54;;;;;;;;;39.00;33.25;;;;;4.66;72.85;100041.38;3614798;39;9550;-59
2021/04/11 02:13:32;;;;;;;;;46.25;31.00;;;;;5.06;71.92;100046.28;3620833;39;9405;-59
2021/04/11 02:16:01;;;;;;;;;41.25;38.75;;;;;5.03;72.01;100045.50;3610612;39;9360;-59
2021/04/11 02:18:31;;;;;;;;;39.50;33.25;;;;;4.88;73.42;100041.56;3616968;39;9451;-59
2021/04/11 02:21:00;;;;;;;;;38.00;33.25;;;;;4.79;73.32;100041.84;3614047;39;9664;-59
2021/04/11 02:23:30;;;;;;;;;43.00;33.00;;;;;5.43;71.52;100039.69;3617428;39;9365;-59
2021/04/11 02:25:57;;;;;;;;;30.50;25.25;;;;;4.77;71.98;100049.88;3617078;39;9793;-59
2021/04/11 02:28:31;;;;;;;;;26.75;24.50;;;;;4.54;74.13;100050.59;3611224;39;9921;-59
2021/04/11 02:31:17;;;;;;;;;32.75;27.25;;;;;4.36;74.91;100048.50;3614279;39;9854;-59
2021/04/11 02:34:30;;;;;;;;;30.00;28.00;;;;;4.15;75.57;100052.66;3604894;39;9758;-59
2021/04/11 02:37:04;;;;;;;;;29.25;28.00;;;;;4.16;75.51;100057.94;3609510;39;9719;-59
2021/04/11 02:39:36;;;;;;;;;33.50;28.00;;;;;4.09;75.58;100059.03;3613636;39;9442;-59
2021/04/11 02:42:09;;;;;;;;;36.75;32.50;;;;;4.45;74.72;100053.56;3617004;39;9455;-58
2021/04/11 02:44:44;;;;;;;;;31.50;24.50;;;;;4.42;74.75;100058.06;3616676;39;10178;-59
2021/04/11 02:47:14;;;;;;;;;28.50;23.75;;;;;4.64;74.50;100053.84;3606599;39;9906;-59
2021/04/11 02:49:44;;;;;;;;;31.50;24.00;;;;;4.34;75.32;100055.66;3609532;39;9583;-59
2021/04/11 02:52:37;;;;;;;;;25.00;24.75;;;;;4.12;75.71;100056.28;3608731;39;9816;-59
2021/04/11 02:55:05;;;;;;;;;23.50;20.75;;;;;4.44;75.24;100057.09;3597201;39;9632;-59
2021/04/11 02:57:32;;;;;;;;;28.50;22.00;;;;;4.84;73.01;100055.84;3608210;39;9997;-59
2021/04/11 02:59:59;;;;;;;;;28.25;23.00;;;;;4.44;74.94;100059.78;3617462;39;9988;-59
2021/04/11 03:02:26;;;;;;;;;27.00;22.00;;;;;3.92;76.62;100058.63;3616464;39;9764;-59
2021/04/11 03:04:55;;;;;;;;;28.50;25.00;;;;;4.28;75.55;100056.69;3614235;39;9579;-59
2021/04/11 03:07:30;;;;;;;;;25.75;18.25;;;;;4.66;73.99;100054.69;3610274;39;10424;-59
2021/04/11 03:10:16;;;;;;;;;30.00;23.25;;;;;4.57;74.29;100053.16;3624671;39;9760;-59
2021/04/11 03:12:45;;;;;;;;;37.50;25.50;;;;;4.39;75.02;100053.72;3621199;39;9745;-59
2021/04/11 03:15:13;;;;;;;;;31.00;26.50;;;;;4.12;75.92;100045.66;3621316;39;9651;-59
2021/04/11 03:17:43;;;;;;;;;32.25;28.25;;;;;4.30;74.82;100049.56;3620788;39;9597;-59
2021/04/11 03:20:17;;;;;;;;;34.00;24.00;;;;;4.60;74.60;100053.06;3620625;39;10351;-59
2021/04/11 03:22:44;;;;;;;;;36.00;27.50;;;;;4.60;74.78;100058.38;3608784;39;9365;-59
2021/04/11 03:25:15;;;;;;;;;24.75;23.00;;;;;4.55;75.49;100059.44;3620156;39;9449;-59
2021/04/11 03:28:07;;;;;;;;;29.50;21.00;;;;;4.80;74.01;100060.41;3611207;39;9887;-59
2021/04/11 03:30:45;;;;;;;;;25.25;19.00;;;;;4.64;75.06;100060.97;3608140;39;9769;-59
2021/04/11 03:33:16;;;;;;;;;20.75;17.00;;;;;4.76;73.77;100063.22;3618190;39;9790;-59
2021/04/11 03:35:47;;;;;;;;;22.25;18.00;;;;;4.72;73.85;100057.13;3623337;39;9943;-59
2021/04/11 03:38:22;;;;;;;;;16.25;16.25;;;;;4.53;75.21;100059.50;3617865;39;9654;-59
2021/04/11 03:40:54;;;;;;;;;19.00;15.50;;;;;4.59;75.18;100067.28;3609356;39;9711;-59
2021/04/11 03:43:53;;;;;;;;;29.00;21.25;;;;;4.41;75.21;100067.84;3621034;39;9640;-58
2021/04/11 03:46:35;;;;;;;;;23.75;16.25;;;;;4.23;76.11;100068.41;3608481;39;9724;-59
2021/04/11 03:49:30;;;;;;;;;24.50;18.75;;;;;4.29;76.20;100068.19;3621639;39;9902;-59
2021/04/11 03:52:01;;;;;;;;;23.75;22.75;;;;;4.47;75.85;100072.97;3617863;39;9828;-59
2021/04/11 03:54:39;;;;;;;;;23.75;21.50;;;;;3.71;77.00;100068.06;3617731;39;9536;-59
2021/04/11 03:57:50;;;;;;;;;56.25;44.25;;;;;3.37;78.77;100086.69;3612819;39;9246;-59
2021/04/11 04:00:28;;;;;;;;;59.75;42.50;;;;;3.16;79.52;100077.47;3614821;39;9218;-59
2021/04/11 04:03:03;;;;;;;;;42.00;33.75;;;;;2.72;79.49;100072.38;3612278;39;9234;-59
2021/04/11 04:05:31;;;;;;;;;39.50;31.00;;;;;2.66;80.99;100075.16;3609973;39;9422;-59
2021/04/11 04:08:00;;;;;;;;;41.25;33.75;;;;;2.83;79.94;100080.94;3610858;39;9222;-59
2021/04/11 04:10:31;;;;;;;;;28.25;22.50;;;;;3.26;79.73;100084.31;3621169;39;9330;-59
2021/04/11 04:13:08;;;;;;;;;31.25;26.50;;;;;3.03;80.14;100076.94;3616174;39;9230;-59
2021/04/11 04:15:54;;;;;;;;;24.75;24.00;;;;;3.10;79.67;100083.81;3621517;39;9234;-58
2021/04/11 04:18:47;;;;;;;;;31.50;26.50;;;;;2.71;80.52;100078.56;3613834;39;9441;-58
2021/04/11 04:21:17;;;;;;;;;31.00;23.00;;;;;2.97;79.68;100085.03;3614337;39;9366;-59
2021/04/11 04:24:02;;;;;;;;;41.00;32.25;;;;;2.81;79.72;100082.72;3617893;39;9270;-59
2021/04/11 04:26:53;;;;;;;;;32.50;26.00;;;;;3.17;79.53;100090.72;3617822;39;9222;-59
2021/04/11 04:29:35;;;;;;;;;50.00;41.25;;;;;3.12;80.00;100091.75;3618838;39;9236;-59
2021/04/11 04:32:29;;;;;;;;;86.50;63.25;;;;;3.52;79.04;100096.91;3618533;39;9250;-59
2021/04/11 04:35:40;;;;;;;;;74.50;54.00;;;;;3.27;79.35;100102.84;3617300;39;9772;-59
2021/04/11 04:38:18;;;;;;;;;53.75;43.00;;;;;3.54;78.74;100105.72;3589245;39;9257;-58
2021/04/11 04:41:13;;;;;;;;;52.75;40.00;;;;;3.22;79.03;100104.75;3604360;39;9256;-59
2021/04/11 04:44:18;;;;;;;;;43.50;36.00;;;;;3.12;79.50;100119.16;3615001;39;9234;-59
2021/04/11 04:47:32;;;;;;;;;39.50;35.50;;;;;3.32;78.10;100112.47;3615928;39;9243;-59
2021/04/11 04:50:31;;;;;;;;;44.25;39.50;;;;;3.55;77.97;100114.53;3617415;39;9222;-67
2021/04/11 04:53:31;;;;;;;;;54.75;40.00;;;;;3.76;76.18;100116.63;3619262;39;9237;-59
2021/04/11 04:56:04;;;;;;;;;44.25;38.00;;;;;6.18;67.49;100123.22;3617551;39;9237;-59
2021/04/11 04:58:44;;;;;;;;;47.75;39.50;;;;;7.65;61.54;100126.28;3613761;39;9793;-59
2021/04/11 05:01:21;;;;;;;;;59.00;44.25;;;;;6.14;66.23;100127.81;3607595;39;9652;-59
2021/04/11 05:03:55;;;;;;;;;43.50;38.75;;;;;7.64;61.38;100126.38;3617271;39;10110;-61
2021/04/11 05:06:39;;;;;;;;;48.50;38.25;;;;;5.52;68.79;100133.50;3622960;39;9962;-60
2021/04/11 05:09:26;;;;;;;;;51.25;39.50;;;;;6.97;64.59;100135.34;3614573;39;10283;-60
2021/04/11 05:12:11;;;;;;;;;64.25;50.25;;;;;5.63;68.92;100145.53;3615936;39;10082;-59
2021/04/11 05:14:52;;;;;;;;;50.25;43.00;;;;;5.12;70.56;100145.47;3614117;39;9845;-61
2021/04/11 05:17:29;;;;;;;;;39.00;33.75;;;;;5.28;72.00;100136.06;3607985;39;9903;-59
2021/04/11 05:20:22;;;;;;;;;159.75;129.25;;;;;5.63;71.14;100147.31;3613881;39;9334;-59
2021/04/11 05:23:05;;;;;;;;;61.75;46.50;;;;;5.29;71.45;100137.78;3610677;39;9310;-59
2021/04/11 05:25:47;;;;;;;;;57.25;44.00;;;;;4.97;73.29;100145.00;3617284;39;9759;-59
2021/04/11 05:29:11;;;;;;;;;56.75;42.50;;;;;5.23;72.93;100143.31;3617396;39;9619;-59
2021/04/11 05:31:40;;;;;;;;;40.50;36.00;;;;;6.55;66.27;100138.72;3598907;39;9689;-59
2021/04/11 05:34:13;;;;;;;;;49.75;41.25;;;;;5.76;69.62;100137.97;3608150;39;10051;-59
2021/04/11 05:37:16;;;;;;;;;31.50;30.75;;;;;6.71;67.21;100131.88;3614795;39;10148;-59
2021/04/11 05:39:51;;;;;;;;;41.50;37.25;;;;;7.93;61.99;100146.50;3613915;39;10341;-59
2021/04/11 05:42:55;;;;;;;;;38.00;34.00;;;;;8.55;62.26;100142.84;3608902;39;9988;-60
2021/04/11 05:45:32;;;;;;;;;45.67;36.00;;;;;9.18;58.82;100141.69;3601749;39;10206;-60
2021/04/11 05:48:32;;;;;;;;;46.33;37.00;;;;;8.81;60.08;100143.44;3616125;39;10578;-60
2021/04/11 05:51:11;;;;;;;;;42.67;36.67;;;;;7.38;65.10;100146.16;3603865;39;10234;-59
2021/04/11 05:53:56;;;;;;;;;38.67;33.33;;;;;8.36;63.03;100147.28;3607858;39;9845;-60
2021/04/11 05:56:37;;;;;;;;;33.00;28.67;;;;;9.35;59.40;100157.81;3620231;39;10320;-59
2021/04/11 05:59:13;;;;;;;;;30.67;30.67;;;;;10.31;55.94;100149.38;3619002;39;9759;-60
2021/04/11 06:01:51;;;;;;;;;36.67;34.00;;;;;9.58;59.17;100151.31;3605051;39;9823;-60
2021/04/11 06:04:39;;;;;;;;;36.67;30.00;;;;;8.93;60.94;100153.59;3610375;39;10023;-60
2021/04/11 06:07:26;;;;;;;;;37.67;31.00;;;;;9.35;60.33;100160.50;3606715;39;9847;-59
2021/04/11 06:10:15;;;;;;;;;34.33;27.67;;;;;11.98;53.63;100154.34;3609770;39;9739;-60
2021/04/11 06:12:51;;;;;;;;;30.00;24.67;;;;;12.44;51.11;100157.81;3620070;39;9688;-60
2021/04/11 06:15:43;;;;;;;;;27.00;26.33;;;;;10.13;58.26;100147.63;3617040;39;9989;-59
2021/04/11 06:18:13;;;;;;;;;29.33;28.00;;;;;9.13;60.39;100144.59;3612734;39;9787;-60
2021/04/11 06:20:47;;;;;;;;;38.33;31.67;;;;;9.19;60.81;100138.09;3607578;39;9651;-59
2021/04/11 06:23:24;;;;;;;;;35.00;28.00;;;;;10.24;58.04;100139.91;3613535;39;9647;-59
2021/04/11 06:26:21;;;;;;;;;35.67;29.00;;;;;11.04;56.60;100137.38;3616597;39;9803;-60
2021/04/11 06:29:07;;;;;;;;;33.00;28.33;;;;;11.43;54.94;100142.31;3617451;39;9779;-59
2021/04/11 06:31:46;;;;;;;;;29.00;29.00;;;;;10.60;57.01;100130.81;3617772;39;10035;-59
2021/04/11 06:34:25;;;;;;;;;25.33;24.33;;;;;11.76;54.17;100128.69;3616712;39;9689;-59
2021/04/11 06:36:59;;;;;;;;;30.00;25.00;;;;;12.19;53.94;100138.72;3608444;39;10796;-60
2021/04/11 06:39:39;;;;;;;;;27.75;26.75;;;;;12.87;51.92;100146.16;3609452;39;10609;-60
2021/04/11 06:42:31;;;;;;;;;33.75;26.00;;;;;11.63;55.03;100155.44;3604456;39;14141;-60
2021/04/11 06:45:30;;;;;;;;;29.75;26.50;;;;;11.72;54.41;100153.19;3614827;39;10605;-59
2021/04/11 06:48:28;;;;;;;;;28.25;25.50;;;;;11.20;56.96;100154.38;3617674;39;13933;-59
2021/04/11 06:51:31;;;;;;;;;32.67;26.33;;;;;10.30;58.03;100144.97;3617741;39;14501;-59
2021/04/11 06:54:36;;;;;;;;;28.67;25.67;;;;;10.13;60.05;100149.44;3601916;39;9843;-60
2021/04/11 06:57:05;;;;;;;;;27.33;24.00;;;;;10.43;58.86;100141.63;3618988;39;9996;-60
2021/04/11 06:59:41;;;;;;;;;27.00;25.33;;;;;10.73;59.46;100131.88;3619335;39;9747;-60
2021/04/11 07:02:54;;;;;;;;;30.33;23.33;;;;;10.99;58.69;100137.63;3618770;39;10116;-61
2021/04/11 07:05:55;;;;;;;;;30.33;25.00;;;;;11.47;56.38;100143.84;3619399;39;10276;-60
2021/04/11 07:08:40;;;;;;;;;30.75;23.00;;;;;11.88;55.81;100139.75;3617977;39;10688;-60
2021/04/11 07:11:23;;;;;;;;;26.50;20.50;;;;;11.55;56.37;100136.19;3618724;39;10524;-60
2021/04/11 07:13:53;;;;;;;;;22.50;15.50;;;;;12.10;55.27;100142.84;3617722;39;13977;-60
2021/04/11 07:16:28;;;;;;;;;24.50;20.50;;;;;12.04;55.20;100143.22;3620128;39;14017;-61
2021/04/11 07:19:23;;;;;;;;;28.25;18.50;;;;;12.44;53.87;100148.88;3617971;39;14020;-61
2021/04/11 07:22:32;;;;;;;;;21.50;19.75;;;;;12.86;52.29;100148.00;3617415;39;14026;-61
2021/04/11 07:25:35;;;;;;;;;23.50;21.00;;;;;13.38;51.20;100154.59;3617164;39;14046;-61
2021/04/11 07:28:32;;;;;;;;;21.25;19.25;;;;;17.49;42.50;100161.19;3605490;39;13952;-61
2021/04/11 07:31:50;;;;;;;;;29.50;21.00;;;;;13.59;50.58;100161.25;3621718;39;13921;-61
2021/04/11 07:34:54;;;;;;;;;22.75;18.50;;;;;12.66;52.57;100167.25;3562187;40;14738;-61
2021/04/11 07:37:42;;;;;;;;;26.25;18.50;;;;;12.35;53.97;100170.97;3597225;39;13972;-61
2021/04/11 07:40:26;;;;;;;;;21.25;17.50;;;;;12.73;53.92;100179.38;3610311;39;14032;-60
2021/04/11 07:43:33;;;;;;;;;18.00;15.00;;;;;13.07;52.89;100177.25;3616846;39;14435;-59
2021/04/11 07:46:25;;;;;;;;;17.00;16.00;;;;;13.61;51.64;100177.31;3611628;39;14218;-60
2021/04/11 07:49:29;;;;;;;;;18.00;16.75;;;;;13.82;51.00;100178.63;3617144;39;13971;-60
2021/04/11 07:52:54;;;;;;;;;13.25;13.25;;;;;13.62;51.87;100170.97;3617502;39;13911;-60
2021/04/11 07:55:37;;;;;;;;;19.75;15.50;;;;;13.38;51.96;100179.72;3613518;39;13939;-60
2021/04/11 07:58:10;;;;;;;;;17.00;15.75;;;;;13.76;51.63;100165.50;3612340;39;13943;-60
2021/04/11 08:00:55;;;;;;;;;19.00;17.00;;;;;14.46;49.48;100165.22;3621152;39;14413;-60
2021/04/11 08:04:08;;;;;;;;;14.75;14.25;;;;;14.40;49.33;100164.78;3606362;39;13931;-60
2021/04/11 08:07:31;;;;;;;;;17.50;14.75;;;;;14.78;49.28;100155.84;3614656;39;13942;-59
2021/04/11 08:10:44;;;;;;;;;13.75;10.50;;;;;15.34;47.72;100158.97;3617485;39;14127;-60
2021/04/11 08:13:44;;;;;;;;;12.75;10.75;;;;;15.23;48.91;100154.34;3616690;39;13931;-60
2021/04/11 08:17:01;;;;;;;;;11.00;11.00;;;;;15.00;48.47;100158.72;3621052;39;14185;-61
2021/04/11 08:20:02;;;;;;;;;12.50;11.25;;;;;14.71;49.05;100163.50;3565765;40;14244;-60
2021/04/11 08:22:44;;;;;;;;;15.25;12.75;;;;;14.61;49.92;100157.91;3561548;40;14105;-59
2021/04/11 08:25:10;;;;;;;;;11.50;11.50;;;;;14.90;50.07;100160.34;3611526;39;14021;-61
2021/04/11 08:28:05;;;;;;;;;10.25;8.50;;;;;15.00;49.74;100157.84;3615681;39;13916;-60
2021/04/11 08:31:21;;;;;;;;;12.00;11.00;;;;;15.39;48.87;100158.63;3616531;39;13925;-61
2021/04/11 08:34:17;;;;;;;;;16.00;12.00;;;;;15.13;48.94;100162.25;3619076;39;13914;-61
2021/04/11 08:37:23;;;;;;;;;10.50;10.50;;;;;15.28;49.09;100154.88;3617438;39;14123;-60
2021/04/11 08:39:55;;;;;;;;;17.25;13.00;;;;;16.35;48.32;100159.44;3617818;39;13889;-59
2021/04/11 08:43:06;;;;;;;;;12.00;10.75;;;;;17.17;45.99;100166.53;3616831;39;13945;-59
2021/04/11 08:45:57;;;;;;;;;10.50;10.50;;;;;16.12;47.61;100157.66;3620868;39;13974;-60
2021/04/11 08:48:46;;;;;;;;;16.25;12.25;;;;;16.71;47.59;100157.50;3617844;39;13917;-60
2021/04/11 08:51:38;;;;;;;;;13.50;12.75;;;;;16.37;46.61;100156.59;3610798;39;13927;-61
2021/04/11 08:54:36;;;;;;;;;14.75;12.50;;;;;16.30;46.68;100161.66;3610536;39;13930;-61
2021/04/11 08:58:08;;;;;;;;;8.75;8.75;;;;;16.68;46.30;100163.19;3596609;39;14395;-61
2021/04/11 09:00:54;;;;;;;;;12.75;12.25;;;;;16.73;45.31;100151.97;3573878;40;13987;-62
2021/04/11 09:04:01;;;;;;;;;12.50;9.75;;;;;17.14;44.66;100148.66;3608338;39;14392;-61
2021/04/11 09:06:41;;;;;;;;;10.75;9.75;;;;;16.76;45.29;100152.56;3617281;39;14105;-62
2021/04/11 09:09:26;;;;;;;;;17.00;13.00;;;;;17.00;45.08;100147.06;3617316;39;13945;-61
2021/04/11 09:12:16;;;;;;;;;9.00;8.50;;;;;16.95;44.96;100143.84;3607882;39;14044;-60
2021/04/11 09:15:34;;;;;;;;;11.75;9.75;;;;;17.15;44.08;100136.81;3610187;39;14066;-62
2021/04/11 09:18:30;;;;;;;;;12.75;10.00;;;;;17.34;42.79;100141.59;3608184;39;13862;-62
2021/04/11 09:21:38;;;;;;;;;8.00;7.00;;;;;17.51;42.85;100132.91;3617971;39;13801;-62
2021/04/11 09:24:18;;;;;;;;;8.25;6.25;;;;;17.41;41.81;100136.53;3620779;39;14221;-62
2021/04/11 09:27:49;;;;;;;;;9.00;6.25;;;;;17.34;41.64;100131.59;3616785;39;14015;-62
2021/04/11 09:31:06;;;;;;;;;14.75;13.25;;;;;17.81;41.14;100135.94;3598611;39;13851;-63
2021/04/11 09:33:52;;;;;;;;;13.50;10.75;;;;;18.21;41.10;100131.50;3611846;39;14007;-62
2021/04/11 09:36:54;;;;;;;;;10.00;7.00;;;;;18.09;40.19;100127.16;3607886;39;14074;-62
2021/04/11 09:40:02;;;;;;;;;13.00;11.00;;;;;18.98;38.85;100115.75;3616974;39;13934;-62
2021/04/11 09:42:44;;;;;;;;;14.00;11.75;;;;;18.62;40.08;100113.44;3616387;39;13905;-61
2021/04/11 09:45:32;;;;;;;;;29.50;26.25;;;;;18.86;39.58;100120.47;3619230;39;13864;-62
2021/04/11 09:48:26;;;;;;;;;9.00;7.00;;;;;18.79;40.07;100105.69;3617014;39;14187;-61
2021/04/11 09:51:17;;;;;;;;;5.00;5.00;;;;;18.67;36.81;100115.78;3615455;39;13225;-62
2021/04/11 09:53:52;;;;;;;;;5.25;3.75;;;;;18.10;37.74;100112.56;3616921;39;12818;-61
2021/04/11 09:56:37;;;;;;;;;5.00;5.00;;;;;18.43;38.69;100103.34;3617165;39;13093;-61
2021/04/11 09:59:52;;;;;;;;;17.75;13.00;;;;;18.88;39.59;100113.03;3616361;39;13598;-62
2021/04/11 10:02:54;;;;;;;;;9.00;8.00;;;;;18.79;37.75;100102.94;3590735;39;14470;-61
2021/04/11 10:06:00;;;;;;;;;6.50;5.00;;;;;18.34;37.11;100104.13;3616728;39;14393;-61
2021/04/11 10:09:02;;;;;;;;;8.75;5.75;;;;;18.16;37.64;100101.16;3608792;39;13756;-61
2021/04/11 10:12:14;;;;;;;;;5.25;4.50;;;;;18.65;37.15;100096.84;3609597;39;13279;-60
2021/04/11 10:15:10;;;;;;;;;7.00;7.00;;;;;18.76;37.20;100087.75;3614029;39;13548;-61
2021/04/11 10:18:12;;;;;;;;;7.75;5.25;;;;;18.91;36.66;100096.41;3609399;39;13935;-62
2021/04/11 10:21:03;;;;;;;;;7.00;6.25;;;;;19.01;36.16;100089.16;3616549;39;14027;-61
2021/04/11 10:24:15;;;;;;;;;7.00;6.75;;;;;18.56;36.72;100081.38;3616422;39;13253;-61
2021/04/11 10:27:00;;;;;;;;;7.50;6.50;;;;;18.80;36.86;100093.78;3616604;39;13807;-62
2021/04/11 10:29:32;;;;;;;;;7.50;7.00;;;;;18.79;37.62;100086.63;3610786;39;13230;-60
2021/04/11 10:32:28;;;;;;;;;10.25;8.00;;;;;18.88;38.35;100087.66;3616496;39;13344;-61
2021/04/11 10:35:14;;;;;;;;;10.00;10.00;;;;;18.52;38.23;100081.75;3601295;39;13899;-60
2021/04/11 10:38:03;;;;;;;;;8.00;8.00;;;;;18.25;38.14;100075.03;3610068;39;13879;-60
2021/04/11 10:41:03;;;;;;;;;6.50;6.25;;;;;18.55;37.92;100076.91;3615645;39;13924;-60
2021/04/11 10:44:19;;;;;;;;;9.75;7.00;;;;;18.67;34.78;100069.53;3616431;39;13918;-59
2021/04/11 10:47:29;;;;;;;;;8.50;8.00;;;;;18.42;32.74;100070.84;3616517;39;13831;-59
2021/04/11 10:50:27;;;;;;;;;9.00;6.00;;;;;18.18;32.96;100072.00;3616809;39;13834;-59
2021/04/11 10:53:25;;;;;;;;;10.00;8.00;;;;;17.95;33.26;100067.69;3609863;39;13843;-59
2021/04/11 10:56:26;;;;;;;;;8.75;6.00;;;;;18.24;33.62;100072.44;3613113;39;13883;-59
2021/04/11 10:59:23;;;;;;;;;10.75;8.00;;;;;17.92;32.66;100059.81;3594199;39;14088;-59
2021/04/11 11:01:58;;;;;;;;;5.50;5.00;;;;;17.93;33.04;100064.22;3612528;39;14407;-59
2021/04/11 11:05:12;;;;;;;;;11.00;9.25;;;;;17.86;33.82;100068.50;3616520;39;13818;-59
2021/04/11 11:08:03;;;;;;;;;8.00;7.25;;;;;18.02;33.57;100066.16;3616246;39;14049;-58
2021/04/11 11:10:58;;;;;;;;;13.75;7.75;;;;;18.04;34.45;100064.19;3615978;39;14042;-59
2021/04/11 11:14:09;;;;;;;;;7.75;7.00;;;;;18.03;33.57;100067.88;3608921;39;13850;-58
2021/04/11 11:17:21;;;;;;;;;8.75;7.50;;;;;18.00;33.79;100060.00;3614919;39;13812;-58
2021/04/11 11:20:14;;;;;;;;;10.00;8.00;;;;;18.23;33.25;100062.59;3616131;39;13933;-59
2021/04/11 11:23:40;;;;;;;;;9.00;7.50;;;;;18.36;32.31;100061.38;3615165;39;13817;-59
2021/04/11 11:26:49;;;;;;;;;6.25;6.00;;;;;18.49;32.48;100055.72;3591932;39;13866;-60
2021/04/11 11:29:41;;;;;;;;;9.25;9.00;;;;;18.65;32.50;100063.34;3614658;39;14058;-59
2021/04/11 11:32:43;;;;;;;;;9.50;8.25;;;;;18.20;32.71;100056.41;3617242;39;13975;-58
2021/04/11 11:35:14;;;;;;;;;7.50;7.50;;;;;18.27;33.14;100064.03;3613758;39;14639;-57
2021/04/11 11:38:27;;;;;;;;;14.75;9.00;;;;;18.35;33.10;100051.50;3612430;39;13940;-58
2021/04/11 11:41:28;;;;;;;;;9.00;7.25;;;;;18.05;32.88;100051.47;3615643;39;13973;-57
2021/04/11 11:44:14;;;;;;;;;6.00;5.00;;;;;17.84;32.77;100049.59;3607721;39;14053;-58
2021/04/11 11:47:14;;;;;;;;;9.50;8.00;;;;;17.84;33.65;100051.47;3617100;39;14050;-56
2021/04/11 11:50:00;;;;;;;;;8.75;6.75;;;;;17.91;33.40;100041.78;3608856;39;13916;-57
2021/04/11 11:52:49;;;;;;;;;6.00;6.00;;;;;17.75;33.11;100043.06;3613502;39;13846;-57
2021/04/11 11:55:29;;;;;;;;;8.25;8.00;;;;;17.48;33.50;100051.72;3618335;39;13854;-57
2021/04/11 11:58:24;;;;;;;;;12.00;8.50;;;;;17.64;33.73;100050.41;3620940;39;13815;-57
2021/04/11 12:01:06;;;;;;;;;9.00;7.25;;;;;17.48;34.00;100039.97;3612359;39;13825;-57
2021/04/11 12:03:36;;;;;;;;;14.00;8.25;;;;;17.42;34.59;100035.09;3621363;39;13816;-57
2021/04/11 12:06:27;;;;;;;;;9.25;7.25;;;;;17.25;35.25;100031.94;3600831;39;13843;-57
2021/04/11 12:09:42;;;;;;;;;7.00;7.00;;;;;17.02;36.39;100035.72;3618054;39;13852;-59
2021/04/11 12:12:30;;;;;;;;;7.25;7.25;;;;;17.01;36.88;100044.81;3578697;39;13998;-59
2021/04/11 12:15:25;;;;;;;;;11.25;9.00;;;;;17.00;36.82;100040.41;3611247;39;14314;-59
2021/04/11 12:18:08;;;;;;;;;9.50;8.00;;;;;16.90;37.12;100053.84;3615687;39;13916;-58
2021/04/11 12:20:51;;;;;;;;;9.50;9.50;;;;;16.80;37.70;100045.63;3607868;39;14171;-59
2021/04/11 12:23:31;;;;;;;;;8.00;8.00;;;;;16.68;37.69;100041.16;3618998;39;14112;-58
2021/04/11 12:26:30;;;;;;;;;12.25;9.00;;;;;16.92;37.59;100043.75;3606392;39;13881;-58
2021/04/11 12:29:11;;;;;;;;;10.00;8.25;;;;;16.64;39.15;100045.97;3614053;39;13958;-58
2021/04/11 12:32:05;;;;;;;;;8.75;7.75;;;;;16.84;39.74;100047.09;3606688;39;13998;-58
2021/04/11 12:35:43;;;;;;;;;7.00;7.00;;;;;16.64;41.39;100045.97;3606938;39;13877;-59
2021/04/11 12:38:21;;;;;;;;;9.25;7.00;;;;;16.50;41.49;100051.63;3564872;40;14081;-58
2021/04/11 12:41:02;;;;;;;;;8.00;7.50;;;;;16.49;41.37;100057.19;3564773;40;14740;-58
2021/04/11 12:43:49;;;;;;;;;10.50;7.50;;;;;16.24;44.04;100067.25;3603183;39;13953;-59
2021/04/11 12:46:43;;;;;;;;;9.00;7.25;;;;;15.53;48.32;100059.19;3612350;39;13929;-59